Time;durP1;ratioP1;P1;durP2;ratioP2;P2;SDS_P1;SDS_P2;PMS_P1;PMS_P2;Temp;Humidity;BMP_temperature;BMP_pressure;BME280_temperature;BME280_humidity;BME280_pressure;Samples;Min_cycle;Max_cycle;Signal;HPM_P1;HPM_P2
2021/09/29 00:00:35;;;;;;;;;;;;;;;7.02;95.25;98624.79;1785669;80;20131;-82
2021/09/29 00:03:02;;;;;;;;;;;;;;;7.00;94.78;98627.70;1785667;80;20088;-81
2021/09/29 00:05:28;;;;;;;;;;;;;;;6.92;95.12;98628.62;1785219;80;20230;-82
2021/09/29 00:07:54;;;;;;;;;;;;;;;6.94;94.93;98634.08;1785481;80;20187;-82
2021/09/29 00:10:20;;;;;;;;;;;;;;;6.96;95.80;98629.25;1785380;80;20140;-82
2021/09/29 00:12:46;;;;;;;;;;;;;;;7.00;96.00;98626.35;1785541;80;20194;-83
2021/09/29 00:15:15;;;;;;;;;;;;;;;6.99;96.29;98626.59;1785452;80;21083;-83
2021/09/29 00:17:44;;;;;;;;;;;;;;;6.93;96.05;98622.20;1785154;80;20132;-82
2021/09/29 00:20:11;;;;;;;;;;;;;;;6.90;95.39;98619.97;1759065;80;20165;-82
2021/09/29 00:22:37;;;;;;;;;;;;;;;6.87;95.73;98617.77;1784561;80;20510;-82
2021/09/29 00:25:04;;;;;;;;;;;;;;;6.85;96.19;98615.31;1753751;81;20139;-82
2021/09/29 00:27:30;;;;;;;;;;;;;;;6.79;96.68;98620.31;1753921;81;21953;-82
2021/09/29 00:30:00;;;;;;;;;;;;;;;6.78;96.71;98618.15;1753799;81;20176;-82
2021/09/29 00:32:23;;;;;;;;;;;;;;;6.73;97.52;98621.27;1751697;82;20174;-81
2021/09/29 00:34:49;;;;;;;;;;;;;;;6.71;97.24;98622.04;1784857;80;20164;-81
2021/09/29 00:37:15;;;;;;;;;;;;;;;6.73;97.18;98620.73;1752212;82;20249;-82
2021/09/29 00:39:41;;;;;;;;;;;;;;;6.66;97.30;98621.40;1752179;82;21277;-82
2021/09/29 00:42:06;;;;;;;;;;;;;;;6.68;97.38;98627.92;1724526;83;20194;-82
2021/09/29 00:44:32;;;;;;;;;;;;;;;6.70;96.79;98628.48;1724622;83;20202;-82
2021/09/29 00:46:58;;;;;;;;;;;;;;;6.72;96.70;98629.06;1724557;83;20227;-84
2021/09/29 00:49:24;;;;;;;;;;;;;;;6.78;96.88;98624.06;1724632;83;20211;-82
2021/09/29 00:51:50;;;;;;;;;;;;;;;6.84;96.00;98622.30;1724505;83;21242;-82
2021/09/29 00:54:18;;;;;;;;;;;;;;;6.92;95.54;98621.38;1724994;83;20161;-82
2021/09/29 00:56:46;;;;;;;;;;;;;;;7.03;95.22;98618.34;1724644;83;20149;-82
2021/09/29 00:59:11;;;;;;;;;;;;;;;7.02;94.66;98613.48;1724816;83;20213;-82
2021/09/29 01:01:37;;;;;;;;;;;;;;;7.08;94.10;98613.84;1724524;83;20195;-82
2021/09/29 01:04:03;;;;;;;;;;;;;;;6.91;93.96;98618.38;1724847;83;21093;-82
2021/09/29 01:06:47;;;;;;;;;;;;;;;6.86;94.34;98608.87;1724506;83;20223;-82
2021/09/29 01:09:33;;;;;;;;;;;;;;;6.78;94.32;98599.30;1724066;83;20145;-82
2021/09/29 01:12:02;;;;;;;;;;;;;;;6.72;95.19;98598.90;1724595;83;20168;-82
2021/09/29 01:14:48;;;;;;;;;;;;;;;6.67;95.70;98589.39;1723728;83;20178;-82
2021/09/29 01:17:15;;;;;;;;;;;;;;;6.65;95.88;98590.14;1724629;83;21117;-82
2021/09/29 01:19:45;;;;;;;;;;;;;;;6.59;96.01;98583.05;1724573;83;20165;-82
2021/09/29 01:22:35;;;;;;;;;;;;;;;6.52;96.30;98579.67;1756925;81;20158;-82
2021/09/29 01:25:03;;;;;;;;;;;;;;;6.49;95.59;98585.52;1737045;82;20223;-82
2021/09/29 01:27:30;;;;;;;;;;;;;;;6.46;94.75;98569.32;1756273;81;20410;-81
2021/09/29 01:29:56;;;;;;;;;;;;;;;6.38;94.72;98568.88;1724548;83;21140;-82
2021/09/29 01:32:22;;;;;;;;;;;;;;;6.32;95.43;98560.41;1724412;83;20176;-82
2021/09/29 01:34:50;;;;;;;;;;;;;;;6.33;94.85;98556.16;1699938;83;20179;-82
2021/09/29 01:37:16;;;;;;;;;;;;;;;6.28;94.76;98556.05;1699384;83;20165;-82
2021/09/29 01:39:42;;;;;;;;;;;;;;;6.23;94.33;98552.70;1726250;83;20216;-82
2021/09/29 01:42:08;;;;;;;;;;;;;;;6.20;94.98;98547.81;1744371;82;21099;-82
2021/09/29 01:44:33;;;;;;;;;;;;;;;6.20;94.85;98545.65;1746632;82;20135;-82
2021/09/29 01:46:59;;;;;;;;;;;;;;;6.22;94.36;98538.15;1746543;82;20153;-82
2021/09/29 01:49:29;;;;;;;;;;;;;;;6.26;93.79;98542.55;1717711;82;20145;-82
2021/09/29 01:51:55;;;;;;;;;;;;;;;6.21;93.31;98539.20;1745823;82;20407;-82
2021/09/29 01:54:23;;;;;;;;;;;;;;;6.15;93.11;98536.12;1746499;82;21805;-82
2021/09/29 01:56:50;;;;;;;;;;;;;;;6.14;93.11;98532.61;1746426;82;20234;-83
2021/09/29 01:59:15;;;;;;;;;;;;;;;6.13;93.40;98530.98;1746281;82;20230;-82
2021/09/29 02:01:41;;;;;;;;;;;;;;;6.08;93.07;98530.89;1746625;82;20232;-82
2021/09/29 02:04:08;;;;;;;;;;;;;;;6.07;93.08;98540.55;1746854;82;20196;-81
2021/09/29 02:06:54;;;;;;;;;;;;;;;6.04;92.83;98534.28;1746551;82;20593;-81
2021/09/29 02:09:22;;;;;;;;;;;;;;;5.94;93.19;98541.62;1746567;82;20135;-82
2021/09/29 02:11:47;;;;;;;;;;;;;;;5.88;94.05;98537.96;1746541;82;20159;-81
2021/09/29 02:14:14;;;;;;;;;;;;;;;5.82;94.47;98542.97;1746565;82;20153;-82
2021/09/29 02:16:40;;;;;;;;;;;;;;;5.81;95.08;98541.83;1746601;82;20158;-82
2021/09/29 02:19:05;;;;;;;;;;;;;;;5.81;95.97;98545.37;1718813;82;21103;-83
2021/09/29 02:21:31;;;;;;;;;;;;;;;5.85;95.78;98539.79;1746580;82;20744;-82
2021/09/29 02:23:57;;;;;;;;;;;;;;;5.88;94.97;98539.84;1779068;80;20290;-82
2021/09/29 02:26:23;;;;;;;;;;;;;;;5.93;95.18;98538.64;1717164;82;20427;-83
2021/09/29 02:28:49;;;;;;;;;;;;;;;5.94;95.98;98539.75;1746651;82;20158;-82
2021/09/29 02:31:16;;;;;;;;;;;;;;;5.97;96.11;98539.79;1717065;82;21041;-83
2021/09/29 02:33:41;;;;;;;;;;;;;;;6.04;94.20;98540.48;1746620;82;20178;-82
2021/09/29 02:36:07;;;;;;;;;;;;;;;6.08;93.39;98530.89;1746356;82;20201;-82
2021/09/29 02:38:33;;;;;;;;;;;;;;;6.01;93.41;98528.86;1746704;82;20381;-82
2021/09/29 02:40:59;;;;;;;;;;;;;;;5.82;94.02;98510.69;1746352;82;20257;-82
2021/09/29 02:43:25;;;;;;;;;;;;;;;5.85;94.82;98523.66;1746329;82;21891;-81
2021/09/29 02:45:50;;;;;;;;;;;;;;;5.86;94.25;98525.28;1746283;82;20204;-82
2021/09/29 02:48:16;;;;;;;;;;;;;;;5.80;93.83;98514.65;1746422;82;20225;-83
2021/09/29 02:50:43;;;;;;;;;;;;;;;5.80;93.51;98519.50;1746331;82;20135;-83
2021/09/29 02:53:08;;;;;;;;;;;;;;;5.76;93.80;98518.35;1746364;82;20158;-82
2021/09/29 02:55:34;;;;;;;;;;;;;;;5.82;94.23;98518.76;1746469;82;21084;-82
2021/09/29 02:58:00;;;;;;;;;;;;;;;5.82;94.48;98517.41;1746414;82;20682;-81
2021/09/29 03:00:26;;;;;;;;;;;;;;;5.86;94.51;98517.22;1746562;82;20179;-81
2021/09/29 03:02:51;;;;;;;;;;;;;;;5.88;94.60;98519.66;1718639;82;20658;-82
2021/09/29 03:05:17;;;;;;;;;;;;;;;5.88;94.67;98515.63;1717249;82;20997;-82
2021/09/29 03:07:43;;;;;;;;;;;;;;;5.90;94.72;98521.61;1779390;80;21131;-82
2021/09/29 03:10:09;;;;;;;;;;;;;;;5.86;94.00;98517.75;1746587;82;20153;-82
2021/09/29 03:12:34;;;;;;;;;;;;;;;5.81;94.52;98521.16;1746385;82;20217;-83
2021/09/29 03:15:00;;;;;;;;;;;;;;;5.77;94.13;98516.48;1718789;82;20181;-82
2021/09/29 03:17:26;;;;;;;;;;;;;;;5.73;93.76;98508.08;1748058;82;20241;-81
2021/09/29 03:19:52;;;;;;;;;;;;;;;5.73;93.84;98512.64;1778955;80;21788;-82
2021/09/29 03:22:17;;;;;;;;;;;;;;;5.70;93.39;98508.53;1747996;82;20169;-81
2021/09/29 03:24:43;;;;;;;;;;;;;;;5.62;95.27;98506.20;1746411;82;20196;-82
2021/09/29 03:27:09;;;;;;;;;;;;;;;5.65;94.62;98506.56;1779045;80;20131;-81
2021/09/29 03:29:35;;;;;;;;;;;;;;;5.64;94.78;98508.97;1746689;82;20157;-82
2021/09/29 03:32:01;;;;;;;;;;;;;;;5.61;94.84;98501.88;1693456;82;21143;-82
2021/09/29 03:34:27;;;;;;;;;;;;;;;5.56;93.87;98501.27;1746372;82;20177;-82
2021/09/29 03:36:52;;;;;;;;;;;;;;;5.47;94.13;98503.17;1746695;82;20197;-82
2021/09/29 03:39:18;;;;;;;;;;;;;;;5.45;93.71;98506.63;1746582;82;20185;-82
2021/09/29 03:41:44;;;;;;;;;;;;;;;5.39;93.19;98499.00;1750913;82;20193;-81
2021/09/29 03:44:10;;;;;;;;;;;;;;;5.31;94.03;98499.34;1754807;81;21105;-81
2021/09/29 03:46:36;;;;;;;;;;;;;;;5.29;93.98;98498.20;1707354;81;20185;-82
2021/09/29 03:49:03;;;;;;;;;;;;;;;5.28;94.10;98495.23;1756471;81;20234;-82
2021/09/29 03:51:29;;;;;;;;;;;;;;;5.32;94.04;98497.77;1757287;81;20138;-82
2021/09/29 03:53:55;;;;;;;;;;;;;;;5.33;93.98;98494.55;1756791;81;20165;-82
2021/09/29 03:56:20;;;;;;;;;;;;;;;5.31;93.92;98494.78;1756482;81;21132;-82
2021/09/29 03:58:46;;;;;;;;;;;;;;;5.31;93.71;98494.78;1730616;81;20224;-81
2021/09/29 04:01:14;;;;;;;;;;;;;;;5.30;94.05;98487.78;1756545;81;20177;-83
2021/09/29 04:03:39;;;;;;;;;;;;;;;5.32;94.22;98490.23;1754734;81;20174;-82
2021/09/29 04:06:05;;;;;;;;;;;;;;;5.32;94.38;98491.05;1761154;80;20147;-82
2021/09/29 04:08:31;;;;;;;;;;;;;;;5.26;94.68;98487.13;1786121;80;21085;-83
2021/09/29 04:10:57;;;;;;;;;;;;;;;5.21;94.65;98487.84;1785608;80;20170;-83
2021/09/29 04:13:23;;;;;;;;;;;;;;;5.19;93.85;98484.55;1785632;80;20397;-82
2021/09/29 04:15:49;;;;;;;;;;;;;;;5.12;94.74;98480.34;1785560;80;20143;-82
2021/09/29 04:18:15;;;;;;;;;;;;;;;5.10;94.88;98482.73;1761158;80;20242;-81
2021/09/29 04:20:41;;;;;;;;;;;;;;;5.06;94.58;98478.89;1785691;80;21164;-81
2021/09/29 04:23:07;;;;;;;;;;;;;;;5.03;94.51;98477.18;1785979;80;20154;-81
2021/09/29 04:25:33;;;;;;;;;;;;;;;4.98;94.62;98475.20;1785944;80;20133;-82
2021/09/29 04:27:58;;;;;;;;;;;;;;;4.96;93.93;98481.87;1786011;80;20170;-81
2021/09/29 04:30:24;;;;;;;;;;;;;;;4.89;95.00;98483.31;1785815;80;20265;-81
2021/09/29 04:32:50;;;;;;;;;;;;;;;4.89;94.80;98478.47;1785810;80;21107;-81
2021/09/29 04:35:16;;;;;;;;;;;;;;;4.86;95.44;98476.23;1786199;80;20190;-82
2021/09/29 04:37:42;;;;;;;;;;;;;;;4.85;96.08;98482.66;1761354;80;20221;-82
2021/09/29 04:40:08;;;;;;;;;;;;;;;4.91;95.87;98476.36;1786009;80;20620;-81
2021/09/29 04:42:34;;;;;;;;;;;;;;;4.87;96.12;98472.48;1785230;80;20157;-82
2021/09/29 04:45:00;;;;;;;;;;;;;;;4.89;96.70;98473.10;1785227;80;21161;-82
2021/09/29 04:47:26;;;;;;;;;;;;;;;4.94;96.35;98474.55;1785234;80;20174;-82
2021/09/29 04:49:51;;;;;;;;;;;;;;;4.92;96.58;98470.75;1758857;80;20226;-82
2021/09/29 04:52:17;;;;;;;;;;;;;;;4.91;96.44;98468.30;1785435;80;20140;-81
2021/09/29 04:54:43;;;;;;;;;;;;;;;4.96;96.31;98468.44;1785450;80;20147;-81
2021/09/29 04:57:10;;;;;;;;;;;;;;;4.96;96.15;98467.09;1785460;80;21053;-81
2021/09/29 04:59:36;;;;;;;;;;;;;;;4.95;96.07;98470.80;1785321;80;20133;-81
2021/09/29 05:02:04;;;;;;;;;;;;;;;4.97;96.00;98464.70;1785359;80;20195;-81
2021/09/29 05:04:29;;;;;;;;;;;;;;;5.01;96.12;98469.89;1784912;80;20420;-81
2021/09/29 05:06:55;;;;;;;;;;;;;;;5.01;96.86;98469.36;1785377;80;20163;-82
2021/09/29 05:09:21;;;;;;;;;;;;;;;5.06;95.74;98460.61;1785528;80;21078;-82
2021/09/29 05:11:49;;;;;;;;;;;;;;;5.09;95.18;98469.54;1758975;80;20191;-82
2021/09/29 05:14:16;;;;;;;;;;;;;;;5.13;94.59;98473.41;1759034;80;20199;-81
2021/09/29 05:16:42;;;;;;;;;;;;;;;5.12;94.68;98468.25;1785512;80;20470;-82
2021/09/29 05:19:08;;;;;;;;;;;;;;;5.09;94.08;98466.86;1785029;80;20170;-82
2021/09/29 05:21:34;;;;;;;;;;;;;;;5.03;94.18;98467.78;1785423;80;21126;-81
2021/09/29 05:23:59;;;;;;;;;;;;;;;5.05;94.07;98471.07;1758695;80;20132;-82
2021/09/29 05:26:25;;;;;;;;;;;;;;;4.99;93.96;98472.81;1785587;80;20162;-82
2021/09/29 05:28:51;;;;;;;;;;;;;;;4.97;93.71;98466.86;1785082;80;20178;-81
2021/09/29 05:31:18;;;;;;;;;;;;;;;5.01;93.10;98473.91;1785224;80;20179;-82
2021/09/29 05:33:44;;;;;;;;;;;;;;;4.90;93.30;98468.84;1784956;80;21269;-81
2021/09/29 05:36:10;;;;;;;;;;;;;;;4.95;93.71;98472.15;1785044;80;20171;-82
2021/09/29 05:38:36;;;;;;;;;;;;;;;5.02;93.29;98470.17;1758825;80;20136;-82
2021/09/29 05:41:01;;;;;;;;;;;;;;;5.03;93.48;98468.59;1785063;80;20171;-81
2021/09/29 05:43:27;;;;;;;;;;;;;;;5.06;93.30;98473.52;1782053;80;20144;-83
2021/09/29 05:45:53;;;;;;;;;;;;;;;5.14;93.23;98476.39;1753450;80;21138;-82
2021/09/29 05:48:19;;;;;;;;;;;;;;;5.12;93.18;98468.25;1781824;80;20210;-82
2021/09/29 05:50:45;;;;;;;;;;;;;;;5.21;93.14;98473.06;1782131;80;20148;-82
2021/09/29 05:53:11;;;;;;;;;;;;;;;5.26;93.50;98469.13;1781940;80;20174;-82
2021/09/29 05:55:37;;;;;;;;;;;;;;;5.40;93.25;98475.63;1753811;80;20392;-83
2021/09/29 05:58:03;;;;;;;;;;;;;;;5.49;93.35;98470.17;1781989;80;21900;-83
2021/09/29 06:00:28;;;;;;;;;;;;;;;5.63;93.29;98474.22;1782275;80;20205;-82
2021/09/29 06:02:55;;;;;;;;;;;;;;;5.74;93.08;98479.31;1782477;80;20159;-81
2021/09/29 06:05:21;;;;;;;;;;;;;;;5.85;92.97;98478.45;1782052;80;20149;-83
2021/09/29 06:07:48;;;;;;;;;;;;;;;5.95;92.66;98476.00;1782345;80;20140;-83
2021/09/29 06:10:14;;;;;;;;;;;;;;;6.05;92.74;98476.72;1781838;80;21009;-81
2021/09/29 06:12:40;;;;;;;;;;;;;;;6.16;92.91;98483.96;1782177;80;20711;-81
2021/09/29 06:15:07;;;;;;;;;;;;;;;6.28;92.45;98478.52;1753493;80;20168;-83
2021/09/29 06:17:43;;;;;;;;;;;;;;;6.30;92.06;98476.40;1778931;80;20141;-82
2021/09/29 06:20:09;;;;;;;;;;;;;;;6.32;92.00;98477.78;1779085;80;20136;-81
2021/09/29 06:22:35;;;;;;;;;;;;;;;6.36;92.54;98475.44;1748220;82;21276;-82
2021/09/29 06:25:01;;;;;;;;;;;;;;;6.50;92.63;98482.98;1747981;81;20290;-83
2021/09/29 06:27:27;;;;;;;;;;;;;;;6.60;92.58;98482.88;1748149;82;20208;-83
2021/09/29 06:29:53;;;;;;;;;;;;;;;6.70;92.67;98482.52;1746625;82;20156;-82
2021/09/29 06:32:19;;;;;;;;;;;;;;;6.74;93.10;98482.30;1779150;80;20230;-81
2021/09/29 06:34:44;;;;;;;;;;;;;;;6.90;92.88;98482.56;1748471;82;21231;-83
2021/09/29 06:37:10;;;;;;;;;;;;;;;7.03;92.67;98476.86;1746669;82;20196;-84
2021/09/29 06:39:36;;;;;;;;;;;;;;;7.21;92.67;98481.18;1778954;80;20278;-83
2021/09/29 06:42:02;;;;;;;;;;;;;;;7.34;92.59;98474.90;1746450;82;20478;-82
2021/09/29 06:44:28;;;;;;;;;;;;;;;7.51;92.61;98472.17;1746279;82;20143;-81
2021/09/29 06:46:54;;;;;;;;;;;;;;;7.63;91.96;98473.42;1746866;82;21095;-82
2021/09/29 06:49:20;;;;;;;;;;;;;;;7.79;91.74;98477.95;1717111;82;20395;-83
2021/09/29 06:51:46;;;;;;;;;;;;;;;8.05;91.92;98478.27;1748183;82;20772;-82
2021/09/29 06:54:12;;;;;;;;;;;;;;;8.31;91.23;98482.08;1747901;82;20149;-82
2021/09/29 06:56:38;;;;;;;;;;;;;;;9.10;89.26;98483.64;1748279;82;20288;-82
2021/09/29 06:59:03;;;;;;;;;;;;;;;9.85;85.96;98482.50;1746291;82;21853;-82
2021/09/29 07:01:29;;;;;;;;;;;;;;;10.66;83.14;98486.02;1778945;80;20167;-83
2021/09/29 07:03:55;;;;;;;;;;;;;;;11.38;80.36;98478.72;1746419;82;20689;-82
2021/09/29 07:06:21;;;;;;;;;;;;;;;11.90;77.09;98482.16;1746339;82;20232;-83
2021/09/29 07:08:47;;;;;;;;;;;;;;;12.26;73.90;98475.48;1746332;82;20260;-83
2021/09/29 07:11:13;;;;;;;;;;;;;;;12.96;73.13;98474.76;1748320;82;21597;-82
2021/09/29 07:13:39;;;;;;;;;;;;;;;13.66;75.75;98475.78;1747628;82;20605;-82
2021/09/29 07:16:04;;;;;;;;;;;;;;;14.11;70.37;98478.55;1747908;82;20181;-82
2021/09/29 07:18:31;;;;;;;;;;;;;;;14.89;74.48;98483.23;1747955;82;20150;-83
2021/09/29 07:20:58;;;;;;;;;;;;;;;15.11;64.98;98484.77;1778798;80;20121;-82
2021/09/29 07:23:24;;;;;;;;;;;;;;;15.59;65.38;98474.14;1748123;82;21741;-82
2021/09/29 07:25:49;;;;;;;;;;;;;;;15.55;62.25;98478.56;1746716;82;20301;-83
2021/09/29 07:28:15;;;;;;;;;;;;;;;15.89;60.81;98476.86;1782044;80;20214;-82
2021/09/29 07:30:42;;;;;;;;;;;;;;;16.41;64.12;98474.70;1781903;80;20175;-83
2021/09/29 07:33:08;;;;;;;;;;;;;;;16.48;59.46;98475.91;1781952;80;20129;-83
2021/09/29 07:35:34;;;;;;;;;;;;;;;17.23;63.81;98474.47;1781824;80;21070;-82
2021/09/29 07:38:00;;;;;;;;;;;;;;;17.52;61.06;98475.92;1782451;80;20206;-82
2021/09/29 07:40:27;;;;;;;;;;;;;;;17.92;58.51;98472.69;1781855;80;20404;-82
2021/09/29 07:42:53;;;;;;;;;;;;;;;18.13;61.33;98472.38;1781718;80;20447;-83
2021/09/29 07:45:19;;;;;;;;;;;;;;;17.34;64.74;98470.91;1753784;80;20175;-81
2021/09/29 07:47:45;;;;;;;;;;;;;;;16.40;59.06;98471.16;1782078;80;21075;-83
2021/09/29 07:50:12;;;;;;;;;;;;;;;15.91;62.68;98470.56;1781821;80;20269;-82
2021/09/29 07:52:38;;;;;;;;;;;;;;;15.38;62.86;98475.05;1778877;80;20406;-82
2021/09/29 07:55:05;;;;;;;;;;;;;;;15.10;64.47;98479.06;1747936;82;20519;-83
2021/09/29 07:57:30;;;;;;;;;;;;;;;15.46;64.28;98471.63;1748215;82;20206;-82
2021/09/29 07:59:56;;;;;;;;;;;;;;;15.66;66.50;98462.30;1722504;80;21105;-82
2021/09/29 08:02:22;;;;;;;;;;;;;;;15.88;64.05;98465.12;1748373;82;20292;-82
2021/09/29 08:04:48;;;;;;;;;;;;;;;16.24;64.08;98455.67;1748023;81;20193;-84
2021/09/29 08:07:14;;;;;;;;;;;;;;;16.48;61.71;98455.95;1748356;82;20209;-82
2021/09/29 08:09:40;;;;;;;;;;;;;;;16.24;64.28;98453.48;1748090;81;20143;-82
2021/09/29 08:12:06;;;;;;;;;;;;;;;15.75;65.09;98452.29;1748581;82;21113;-82
2021/09/29 08:14:33;;;;;;;;;;;;;;;15.49;66.79;98458.75;1747910;81;20151;-82
2021/09/29 08:16:58;;;;;;;;;;;;;;;15.61;64.77;98453.63;1748296;82;20202;-82
2021/09/29 08:19:24;;;;;;;;;;;;;;;16.42;62.54;98451.73;1746507;82;20647;-83
2021/09/29 08:21:50;;;;;;;;;;;;;;;17.52;63.41;98456.74;1779112;80;20751;-82
2021/09/29 08:24:20;;;;;;;;;;;;;;;18.39;61.66;98455.98;1748013;82;21232;-82
2021/09/29 08:26:54;;;;;;;;;;;;;;;18.77;56.79;98447.95;1746193;82;20461;-82
2021/09/29 08:34:37;;;;;;;;;;;;;;;20.27;56.03;98439.23;1716896;82;20170;-83
2021/09/29 08:37:20;;;;;;;;;;;;;;;20.21;51.40;98435.86;1747255;80;21084;-83
2021/09/29 08:39:42;;;;;;;;;;;;;;;20.80;52.45;98430.86;1717562;82;20160;-84
2021/09/29 08:42:21;;;;;;;;;;;;;;;21.68;57.47;98435.98;1743049;82;20143;-83
2021/09/29 08:44:52;;;;;;;;;;;;;;;21.96;52.54;98425.11;1722806;83;20138;-82
2021/09/29 08:47:20;;;;;;;;;;;;;;;21.79;46.80;98432.77;1720875;83;20137;-83
2021/09/29 08:49:55;;;;;;;;;;;;;;;21.69;50.01;98429.31;1723657;83;22021;-82
2021/09/29 08:52:28;;;;;;;;;;;;;;;19.67;50.49;98433.46;1723568;83;20134;-85
2021/09/29 08:55:05;;;;;;;;;;;;;;;19.19;57.00;98433.15;1722223;83;20436;-83
2021/09/29 09:16:30;;;;;;;;;;;;;;;15.56;64.98;98435.95;1724741;83;21157;-84
2021/09/29 09:18:57;;;;;;;;;;;;;;;15.10;67.60;98438.13;1724416;83;20162;-87
2021/09/29 09:21:23;;;;;;;;;;;;;;;15.10;67.15;98432.66;1698376;83;20188;-85
2021/09/29 09:23:49;;;;;;;;;;;;;;;15.08;67.85;98429.43;1724402;83;20180;-87
2021/09/29 09:26:21;;;;;;;;;;;;;;;14.87;69.52;98431.70;1724494;83;20200;-87
2021/09/29 09:28:48;;;;;;;;;;;;;;;14.81;69.46;98436.97;1725517;83;22159;-82
2021/09/29 09:31:19;;;;;;;;;;;;;;;14.82;70.15;98433.13;1730704;81;20410;-85
2021/09/29 09:33:51;;;;;;;;;;;;;;;14.92;69.63;98429.42;1737057;82;20163;-86
2021/09/29 09:36:36;;;;;;;;;;;;;;;14.97;69.18;98427.98;1755317;81;20410;-83
2021/09/29 09:39:08;;;;;;;;;;;;;;;14.93;69.73;98429.13;1724812;83;20133;-84
2021/09/29 09:41:34;;;;;;;;;;;;;;;14.88;68.97;98428.41;1724373;83;21713;-82
2021/09/29 09:44:02;;;;;;;;;;;;;;;14.84;69.74;98429.55;1724152;82;20280;-82
2021/09/29 09:46:28;;;;;;;;;;;;;;;14.81;69.49;98434.24;1724551;83;20449;-85
2021/09/29 09:49:08;;;;;;;;;;;;;;;14.76;70.29;98432.95;1724511;83;20247;-82
2021/09/29 09:51:45;;;;;;;;;;;;;;;14.69;70.50;98429.78;1725161;83;20425;-84
2021/09/29 09:54:11;;;;;;;;;;;;;;;14.68;70.44;98429.53;1724416;83;21064;-84
2021/09/29 09:56:37;;;;;;;;;;;;;;;14.59;70.86;98431.30;1724552;83;20199;-85
2021/09/29 09:59:06;;;;;;;;;;;;;;;14.54;70.57;98425.39;1724480;83;20558;-83
2021/09/29 10:01:32;;;;;;;;;;;;;;;14.51;70.72;98424.59;1724279;83;20197;-82
2021/09/29 10:04:09;;;;;;;;;;;;;;;14.49;71.03;98416.47;1724480;83;20187;-85
2021/09/29 10:06:35;;;;;;;;;;;;;;;14.50;70.80;98413.44;1724423;83;21388;-82
2021/09/29 10:09:09;;;;;;;;;;;;;;;14.50;71.17;98420.25;1724383;83;20397;-85
2021/09/29 10:11:37;;;;;;;;;;;;;;;14.50;71.51;98418.08;1697812;83;20141;-83
2021/09/29 10:14:17;;;;;;;;;;;;;;;14.52;71.65;98414.50;1726567;81;21612;-83
2021/09/29 10:27:22;;;;;;;;;;;;;;;14.65;72.73;98406.95;1726517;83;20208;-85
2021/09/29 10:29:51;;;;;;;;;;;;;;;14.66;72.54;98412.66;1755837;81;20163;-82
2021/09/29 10:32:24;;;;;;;;;;;;;;;14.64;72.87;98413.52;1753829;81;20913;-82
2021/09/29 10:41:02;;;;;;;;;;;;;;;14.54;74.33;98412.31;1705345;83;20136;-84
2021/09/29 10:42:58;;;;;;;;;;;;;;;14.56;74.45;98410.09;1715247;80;20174;-82
2021/09/29 10:45:32;;;;;;;;;;;;;;;14.60;74.04;98398.28;1767904;81;21303;-84
2021/09/29 10:50:56;;;;;;;;;;;;;;;14.61;75.35;98401.29;1769392;81;20134;-83
2021/09/29 11:02:53;;;;;;;;;;;;;;;14.69;75.14;98395.69;1765523;81;20138;-84
2021/09/29 11:29:29;;;;;;;;;;;;;;;15.69;74.41;98365.52;1769543;81;20131;-83
2021/09/29 11:31:25;;;;;;;;;;;;;;;15.81;74.43;98362.28;1753667;81;20130;-83
2021/09/29 11:34:02;;;;;;;;;;;;;;;15.95;74.07;98366.34;1743114;81;20158;-83
2021/09/29 12:09:07;;;;;;;;;;;;;;;16.92;72.45;98358.09;1727253;83;20188;-84
2021/09/29 12:11:41;;;;;;;;;;;;;;;17.01;72.38;98350.74;1702930;83;20165;-82
2021/09/29 12:14:00;;;;;;;;;;;;;;;16.99;71.85;98361.17;1725380;83;20117;-83
2021/09/29 12:16:31;;;;;;;;;;;;;;;17.12;72.62;98357.56;1726980;83;20161;-84
2021/09/29 12:18:59;;;;;;;;;;;;;;;17.13;72.13;98355.63;1727288;83;21063;-84
2021/09/29 12:21:49;;;;;;;;;;;;;;;17.01;71.80;98363.63;1727489;83;20125;-84
2021/09/29 12:24:31;;;;;;;;;;;;;;;16.91;71.92;98361.36;1727325;83;20417;-84
2021/09/29 12:26:59;;;;;;;;;;;;;;;16.86;72.56;98361.52;1709333;83;20136;-84
2021/09/29 12:29:35;;;;;;;;;;;;;;;16.79;72.83;98362.51;1727126;83;20133;-83
2021/09/29 12:32:16;;;;;;;;;;;;;;;16.72;72.84;98364.06;1727310;83;21041;-83
2021/09/29 12:34:49;;;;;;;;;;;;;;;16.65;73.01;98364.46;1701919;83;20141;-82
2021/09/29 12:37:15;;;;;;;;;;;;;;;16.67;73.36;98369.64;1758898;81;20170;-82
2021/09/29 12:39:42;;;;;;;;;;;;;;;16.62;73.38;98370.56;1728683;83;20161;-84
2021/09/29 12:42:08;;;;;;;;;;;;;;;16.62;73.58;98371.93;1758666;81;20210;-83
2021/09/29 12:44:33;;;;;;;;;;;;;;;16.69;73.66;98368.23;1730425;81;21878;-84
2021/09/29 12:49:48;;;;;;;;;;;;;;;16.67;74.74;98369.09;1704622;83;20141;-82
2021/09/29 12:52:31;;;;;;;;;;;;;;;16.57;74.60;98377.52;1726128;83;20201;-83
2021/09/29 12:54:58;;;;;;;;;;;;;;;16.63;74.27;98381.75;1758252;81;20186;-81
2021/09/29 12:57:27;;;;;;;;;;;;;;;16.57;74.58;98394.73;1700757;83;21802;-83
2021/09/29 12:59:52;;;;;;;;;;;;;;;16.56;74.75;98389.02;1727052;83;20413;-83
2021/09/29 13:02:18;;;;;;;;;;;;;;;16.37;74.75;98387.01;1727224;83;20786;-84
2021/09/29 13:04:43;;;;;;;;;;;;;;;16.18;74.90;98390.46;1726990;83;20147;-85
2021/09/29 13:07:09;;;;;;;;;;;;;;;16.13;74.66;98391.37;1701848;83;20258;-84
2021/09/29 13:09:35;;;;;;;;;;;;;;;16.12;75.23;98397.14;1700295;83;21692;-82
2021/09/29 13:12:01;;;;;;;;;;;;;;;16.14;75.11;98394.91;1727163;83;20791;-84
2021/09/29 13:14:27;;;;;;;;;;;;;;;16.14;75.02;98394.34;1727020;83;20710;-83
2021/09/29 13:16:53;;;;;;;;;;;;;;;15.90;75.38;98389.70;1727428;83;20231;-84
2021/09/29 13:19:32;;;;;;;;;;;;;;;15.92;75.78;98397.84;1727243;83;20234;-82
2021/09/29 13:21:58;;;;;;;;;;;;;;;15.96;75.92;98396.09;1726599;83;21232;-84
2021/09/29 13:24:31;;;;;;;;;;;;;;;15.89;76.08;98401.72;1726948;83;20149;-82
2021/09/29 13:35:13;;;;;;;;;;;;;;;15.78;76.51;98386.09;1758570;81;21047;-82
2021/09/29 13:37:34;;;;;;;;;;;;;;;15.80;76.56;98385.23;1757665;81;20249;-83
2021/09/29 13:40:01;;;;;;;;;;;;;;;15.93;76.22;98387.72;1727115;83;20258;-82
2021/09/29 13:42:26;;;;;;;;;;;;;;;15.97;76.31;98388.14;1727720;83;20239;-83
2021/09/29 13:44:53;;;;;;;;;;;;;;;15.88;76.36;98385.88;1742291;80;20181;-84
2021/09/29 13:47:18;;;;;;;;;;;;;;;15.89;76.57;98382.59;1748243;82;21063;-85
2021/09/29 13:49:44;;;;;;;;;;;;;;;15.77;77.14;98388.02;1748041;82;20685;-82
2021/09/29 13:52:14;;;;;;;;;;;;;;;15.79;76.94;98387.72;1746678;82;20216;-85
2021/09/29 13:54:41;;;;;;;;;;;;;;;15.76;76.81;98390.51;1779189;80;20101;-85
2021/09/29 13:57:14;;;;;;;;;;;;;;;15.73;76.66;98394.41;1717824;82;20139;-84
2021/09/29 14:29:44;;;;;;;;;;;;;;;14.82;79.80;98400.39;1778822;80;20157;-83
2021/09/29 14:32:08;;;;;;;;;;;;;;;14.85;79.66;98398.98;1747302;82;20167;-84
2021/09/29 14:34:32;;;;;;;;;;;;;;;14.83;80.07;98401.20;1719275;82;20162;-83
2021/09/29 14:36:58;;;;;;;;;;;;;;;14.72;80.99;98403.30;1748203;82;20193;-83
2021/09/29 14:39:25;;;;;;;;;;;;;;;14.75;80.23;98404.05;1746519;82;21840;-84
2021/09/29 14:41:51;;;;;;;;;;;;;;;14.67;79.92;98408.27;1779047;80;20200;-83
2021/09/29 14:44:17;;;;;;;;;;;;;;;14.63;80.84;98404.52;1738702;82;20144;-83
2021/09/29 14:46:43;;;;;;;;;;;;;;;14.46;81.85;98401.52;1724418;83;20133;-84
2021/09/29 14:49:08;;;;;;;;;;;;;;;14.42;81.21;98403.72;1724625;83;20148;-84
2021/09/29 14:51:34;;;;;;;;;;;;;;;14.38;81.07;98408.96;1724496;83;21061;-84
2021/09/29 14:54:00;;;;;;;;;;;;;;;14.39;80.97;98405.94;1724892;83;20186;-82
2021/09/29 14:56:26;;;;;;;;;;;;;;;14.38;80.46;98406.23;1724362;83;20195;-82
2021/09/29 14:58:52;;;;;;;;;;;;;;;14.35;81.15;98409.53;1724906;83;20130;-82
2021/09/29 15:01:20;;;;;;;;;;;;;;;14.32;81.05;98406.85;1724372;83;20242;-82
2021/09/29 15:03:47;;;;;;;;;;;;;;;14.24;82.77;98407.51;1724675;83;21097;-82
2021/09/29 15:06:14;;;;;;;;;;;;;;;14.20;82.58;98413.30;1724521;83;20096;-85
2021/09/29 15:08:41;;;;;;;;;;;;;;;14.15;83.10;98410.63;1724581;83;20412;-85
2021/09/29 15:11:09;;;;;;;;;;;;;;;14.18;81.82;98417.41;1698401;83;20160;-82
2021/09/29 15:13:43;;;;;;;;;;;;;;;14.17;82.51;98415.78;1731657;81;20157;-82
2021/09/29 15:16:13;;;;;;;;;;;;;;;14.17;82.56;98417.15;1735697;82;20930;-82
2021/09/29 15:18:41;;;;;;;;;;;;;;;14.22;82.11;98418.45;1754557;81;20162;-82
2021/09/29 15:21:15;;;;;;;;;;;;;;;14.24;82.83;98415.69;1723175;83;20205;-85
2021/09/29 15:26:35;;;;;;;;;;;;;;;14.28;82.67;98421.38;1726099;83;20397;-82